sensor_id;sensor_type;location;lat;lon;timestamp;pressure;altitude;pressure_sealevel;temperature;humidity
33697;BME280;20031;43.416;23.232;2023-09-19T00:01:14;100265.94;;;17.51;82.45
33697;BME280;20031;43.416;23.232;2023-09-19T00:03:40;100250.88;;;17.38;82.12
33697;BME280;20031;43.416;23.232;2023-09-19T00:06:07;100264.50;;;17.48;82.72
33697;BME280;20031;43.416;23.232;2023-09-19T00:08:33;100259.44;;;17.53;82.58
33697;BME280;20031;43.416;23.232;2023-09-19T00:11:00;100256.63;;;17.55;82.27
33697;BME280;20031;43.416;23.232;2023-09-19T00:13:32;100260.84;;;17.56;82.16
33697;BME280;20031;43.416;23.232;2023-09-19T00:15:58;100262.91;;;17.54;82.17
33697;BME280;20031;43.416;23.232;2023-09-19T00:18:25;100258.03;;;17.51;81.74
33697;BME280;20031;43.416;23.232;2023-09-19T00:21:00;100254.13;;;17.40;81.80
33697;BME280;20031;43.416;23.232;2023-09-19T00:23:26;100253.91;;;17.42;82.03
33697;BME280;20031;43.416;23.232;2023-09-19T00:25:53;100248.66;;;17.42;82.28
33697;BME280;20031;43.416;23.232;2023-09-19T00:28:22;100260.25;;;17.54;82.07
33697;BME280;20031;43.416;23.232;2023-09-19T00:30:48;100249.88;;;17.46;81.74
33697;BME280;20031;43.416;23.232;2023-09-19T00:33:16;100248.69;;;17.48;81.77
33697;BME280;20031;43.416;23.232;2023-09-19T00:35:51;100242.94;;;17.32;81.57
33697;BME280;20031;43.416;23.232;2023-09-19T00:38:18;100250.63;;;17.27;81.42
33697;BME280;20031;43.416;23.232;2023-09-19T00:40:47;100263.19;;;17.25;81.89
33697;BME280;20031;43.416;23.232;2023-09-19T00:43:13;100238.97;;;17.09;81.78
33697;BME280;20031;43.416;23.232;2023-09-19T00:45:39;100249.28;;;17.04;81.75
33697;BME280;20031;43.416;23.232;2023-09-19T00:48:07;100252.53;;;17.06;81.92
33697;BME280;20031;43.416;23.232;2023-09-19T00:50:35;100248.44;;;16.97;82.49
33697;BME280;20031;43.416;23.232;2023-09-19T00:53:01;100254.09;;;17.00;82.34
33697;BME280;20031;43.416;23.232;2023-09-19T00:55:31;100257.13;;;16.97;82.83
33697;BME280;20031;43.416;23.232;2023-09-19T00:57:58;100253.25;;;16.93;82.71
33697;BME280;20031;43.416;23.232;2023-09-19T01:00:24;100260.56;;;16.98;82.99
33697;BME280;20031;43.416;23.232;2023-09-19T01:02:50;100258.56;;;17.00;83.20
33697;BME280;20031;43.416;23.232;2023-09-19T01:05:15;100256.53;;;16.95;82.68
33697;BME280;20031;43.416;23.232;2023-09-19T01:07:41;100267.56;;;16.85;82.55
33697;BME280;20031;43.416;23.232;2023-09-19T01:10:12;100278.44;;;16.75;82.65
33697;BME280;20031;43.416;23.232;2023-09-19T01:17:54;100269.09;;;16.73;82.94
33697;BME280;20031;43.416;23.232;2023-09-19T01:20:25;100267.69;;;16.70;82.65
33697;BME280;20031;43.416;23.232;2023-09-19T01:23:13;100268.47;;;16.64;82.88
33697;BME280;20031;43.416;23.232;2023-09-19T01:28:32;100258.56;;;16.73;83.67
33697;BME280;20031;43.416;23.232;2023-09-19T01:31:04;100253.16;;;16.74;83.10
33697;BME280;20031;43.416;23.232;2023-09-19T01:33:54;100260.00;;;16.69;82.53
33697;BME280;20031;43.416;23.232;2023-09-19T01:36:22;100257.88;;;16.58;82.65
33697;BME280;20031;43.416;23.232;2023-09-19T01:38:50;100265.16;;;16.56;83.21
33697;BME280;20031;43.416;23.232;2023-09-19T01:41:19;100255.63;;;16.55;83.12
33697;BME280;20031;43.416;23.232;2023-09-19T01:43:49;100261.75;;;16.62;82.74
33697;BME280;20031;43.416;23.232;2023-09-19T01:46:25;100256.69;;;16.60;82.69
33697;BME280;20031;43.416;23.232;2023-09-19T01:49:18;100254.88;;;16.61;82.71
33697;BME280;20031;43.416;23.232;2023-09-19T01:52:10;100260.38;;;16.66;83.09
33697;BME280;20031;43.416;23.232;2023-09-19T01:54:52;100241.53;;;16.62;82.94
33697;BME280;20031;43.416;23.232;2023-09-19T01:57:30;100253.50;;;16.71;82.61
33697;BME280;20031;43.416;23.232;2023-09-19T02:00:04;100260.41;;;16.72;82.82
33697;BME280;20031;43.416;23.232;2023-09-19T02:02:35;100246.38;;;16.59;82.53
33697;BME280;20031;43.416;23.232;2023-09-19T02:05:02;100262.38;;;16.64;82.72
33697;BME280;20031;43.416;23.232;2023-09-19T02:07:29;100252.81;;;16.56;82.78
33697;BME280;20031;43.416;23.232;2023-09-19T02:09:57;100255.63;;;16.55;82.68
33697;BME280;20031;43.416;23.232;2023-09-19T02:12:22;100251.19;;;16.55;82.88
33697;BME280;20031;43.416;23.232;2023-09-19T02:14:48;100256.91;;;16.65;82.67
33697;BME280;20031;43.416;23.232;2023-09-19T02:17:13;100269.47;;;16.70;82.42
33697;BME280;20031;43.416;23.232;2023-09-19T02:19:39;100269.09;;;16.73;82.38
33697;BME280;20031;43.416;23.232;2023-09-19T02:22:06;100257.56;;;16.67;82.50
33697;BME280;20031;43.416;23.232;2023-09-19T02:24:33;100246.59;;;16.64;82.39
33697;BME280;20031;43.416;23.232;2023-09-19T02:26:58;100261.41;;;16.71;82.33
33697;BME280;20031;43.416;23.232;2023-09-19T02:29:29;100248.84;;;16.67;82.56
33697;BME280;20031;43.416;23.232;2023-09-19T02:31:55;100276.38;;;16.71;82.19
33697;BME280;20031;43.416;23.232;2023-09-19T02:34:21;100255.44;;;16.56;81.84
33697;BME280;20031;43.416;23.232;2023-09-19T02:36:47;100265.63;;;16.66;82.17
33697;BME280;20031;43.416;23.232;2023-09-19T02:39:12;100251.81;;;16.57;82.13
33697;BME280;20031;43.416;23.232;2023-09-19T02:41:38;100252.84;;;16.63;82.25
33697;BME280;20031;43.416;23.232;2023-09-19T02:44:03;100239.69;;;16.63;82.30
33697;BME280;20031;43.416;23.232;2023-09-19T02:46:35;100252.50;;;16.66;81.97
33697;BME280;20031;43.416;23.232;2023-09-19T02:49:04;100257.75;;;16.66;81.94
33697;BME280;20031;43.416;23.232;2023-09-19T02:51:31;100245.34;;;16.60;81.84
33697;BME280;20031;43.416;23.232;2023-09-19T02:53:59;100238.66;;;16.57;82.07
33697;BME280;20031;43.416;23.232;2023-09-19T02:56:24;100246.97;;;16.61;82.19
33697;BME280;20031;43.416;23.232;2023-09-19T02:58:50;100253.69;;;16.63;81.89
33697;BME280;20031;43.416;23.232;2023-09-19T03:01:16;100242.88;;;16.52;82.20
33697;BME280;20031;43.416;23.232;2023-09-19T03:03:44;100235.38;;;16.49;81.86
33697;BME280;20031;43.416;23.232;2023-09-19T03:06:10;100248.59;;;16.62;82.33
33697;BME280;20031;43.416;23.232;2023-09-19T03:08:38;100253.47;;;16.65;82.06
33697;BME280;20031;43.416;23.232;2023-09-19T03:11:05;100261.31;;;16.58;81.82
33697;BME280;20031;43.416;23.232;2023-09-19T03:13:32;100260.69;;;16.56;82.15
33697;BME280;20031;43.416;23.232;2023-09-19T03:15:57;100258.47;;;16.53;81.94
33697;BME280;20031;43.416;23.232;2023-09-19T03:18:26;100258.50;;;16.60;81.84
33697;BME280;20031;43.416;23.232;2023-09-19T03:20:55;100256.50;;;16.62;82.16
33697;BME280;20031;43.416;23.232;2023-09-19T03:23:22;100247.97;;;16.60;81.88
33697;BME280;20031;43.416;23.232;2023-09-19T03:25:47;100251.84;;;16.64;81.84
33697;BME280;20031;43.416;23.232;2023-09-19T03:28:13;100238.47;;;16.59;82.33
33697;BME280;20031;43.416;23.232;2023-09-19T03:30:40;100239.69;;;16.63;82.58
33697;BME280;20031;43.416;23.232;2023-09-19T03:33:06;100242.19;;;16.71;82.20
33697;BME280;20031;43.416;23.232;2023-09-19T03:35:31;100240.34;;;16.71;82.22
33697;BME280;20031;43.416;23.232;2023-09-19T03:37:57;100232.91;;;16.75;82.15
33697;BME280;20031;43.416;23.232;2023-09-19T03:40:22;100258.69;;;16.86;82.13
33697;BME280;20031;43.416;23.232;2023-09-19T03:42:48;100256.84;;;16.86;82.21
33697;BME280;20031;43.416;23.232;2023-09-19T03:45:14;100254.22;;;16.86;81.65
33697;BME280;20031;43.416;23.232;2023-09-19T03:47:40;100244.09;;;16.83;81.71
33697;BME280;20031;43.416;23.232;2023-09-19T03:50:06;100248.38;;;16.90;82.12
33697;BME280;20031;43.416;23.232;2023-09-19T03:52:36;100241.88;;;16.86;81.57
33697;BME280;20031;43.416;23.232;2023-09-19T03:55:01;100242.72;;;16.93;81.69
33697;BME280;20031;43.416;23.232;2023-09-19T03:57:31;100243.91;;;16.91;81.67
33697;BME280;20031;43.416;23.232;2023-09-19T03:59:56;100242.25;;;16.84;81.51
33697;BME280;20031;43.416;23.232;2023-09-19T04:02:22;100248.72;;;16.81;81.20
33697;BME280;20031;43.416;23.232;2023-09-19T04:04:49;100242.03;;;16.79;81.11
33697;BME280;20031;43.416;23.232;2023-09-19T04:07:15;100240.56;;;16.70;81.48
33697;BME280;20031;43.416;23.232;2023-09-19T04:09:40;100265.91;;;16.77;81.42
33697;BME280;20031;43.416;23.232;2023-09-19T04:12:07;100265.28;;;16.75;81.51
33697;BME280;20031;43.416;23.232;2023-09-19T04:14:34;100237.38;;;16.74;81.85
33697;BME280;20031;43.416;23.232;2023-09-19T04:16:59;100254.03;;;16.87;81.60
33697;BME280;20031;43.416;23.232;2023-09-19T04:19:25;100250.81;;;16.92;81.95
33697;BME280;20031;43.416;23.232;2023-09-19T04:21:51;100245.59;;;16.98;82.06
33697;BME280;20031;43.416;23.232;2023-09-19T04:24:16;100254.16;;;17.07;81.73
33697;BME280;20031;43.416;23.232;2023-09-19T04:26:44;100244.63;;;17.06;81.70
33697;BME280;20031;43.416;23.232;2023-09-19T04:29:10;100244.88;;;17.17;81.75
33697;BME280;20031;43.416;23.232;2023-09-19T04:31:36;100229.63;;;17.06;81.70
33697;BME280;20031;43.416;23.232;2023-09-19T04:34:03;100226.59;;;17.09;81.76
33697;BME280;20031;43.416;23.232;2023-09-19T04:36:29;100239.00;;;17.15;82.23
33697;BME280;20031;43.416;23.232;2023-09-19T04:38:55;100248.59;;;17.29;81.88
33697;BME280;20031;43.416;23.232;2023-09-19T04:41:20;100242.84;;;17.19;81.51
33697;BME280;20031;43.416;23.232;2023-09-19T04:43:47;100234.94;;;17.13;81.94
33697;BME280;20031;43.416;23.232;2023-09-19T04:46:14;100235.78;;;17.20;82.26
33697;BME280;20031;43.416;23.232;2023-09-19T04:48:40;100243.78;;;17.33;82.14
33697;BME280;20031;43.416;23.232;2023-09-19T04:51:07;100253.16;;;17.48;82.20
33697;BME280;20031;43.416;23.232;2023-09-19T04:53:33;100233.69;;;17.42;82.04
33697;BME280;20031;43.416;23.232;2023-09-19T04:55:58;100253.59;;;17.58;81.70
33697;BME280;20031;43.416;23.232;2023-09-19T04:58:24;100248.34;;;17.71;81.80
33697;BME280;20031;43.416;23.232;2023-09-19T05:00:49;100249.19;;;17.78;81.26
33697;BME280;20031;43.416;23.232;2023-09-19T05:03:16;100233.78;;;17.75;81.32
33697;BME280;20031;43.416;23.232;2023-09-19T05:05:42;100227.47;;;17.76;80.90
33697;BME280;20031;43.416;23.232;2023-09-19T05:08:08;100222.84;;;17.84;80.56
33697;BME280;20031;43.416;23.232;2023-09-19T05:10:35;100233.78;;;17.94;80.31
33697;BME280;20031;43.416;23.232;2023-09-19T05:13:03;100226.31;;;18.04;80.49
33697;BME280;20031;43.416;23.232;2023-09-19T05:15:30;100226.31;;;18.10;80.06
33697;BME280;20031;43.416;23.232;2023-09-19T05:17:56;100227.38;;;18.16;79.65
33697;BME280;20031;43.416;23.232;2023-09-19T05:20:22;100224.94;;;18.21;79.70
33697;BME280;20031;43.416;23.232;2023-09-19T05:23:05;100214.78;;;18.31;79.31
33697;BME280;20031;43.416;23.232;2023-09-19T05:25:36;100217.03;;;18.40;79.78
33697;BME280;20031;43.416;23.232;2023-09-19T05:28:09;100207.06;;;18.42;79.35
33697;BME280;20031;43.416;23.232;2023-09-19T05:30:37;100199.75;;;18.44;79.35
33697;BME280;20031;43.416;23.232;2023-09-19T05:33:04;100202.56;;;18.55;79.32
33697;BME280;20031;43.416;23.232;2023-09-19T05:35:30;100198.06;;;18.75;78.92
33697;BME280;20031;43.416;23.232;2023-09-19T05:37:56;100200.50;;;18.83;78.50
33697;BME280;20031;43.416;23.232;2023-09-19T05:40:23;100199.66;;;18.95;78.21
33697;BME280;20031;43.416;23.232;2023-09-19T05:42:49;100206.94;;;19.06;77.30
33697;BME280;20031;43.416;23.232;2023-09-19T05:45:16;100189.50;;;19.05;77.28
33697;BME280;20031;43.416;23.232;2023-09-19T05:47:48;100184.16;;;19.18;77.09
33697;BME280;20031;43.416;23.232;2023-09-19T05:50:14;100202.78;;;19.30;76.62
33697;BME280;20031;43.416;23.232;2023-09-19T05:52:42;100197.22;;;19.44;76.18
33697;BME280;20031;43.416;23.232;2023-09-19T05:55:09;100199.41;;;19.53;75.60
33697;BME280;20031;43.416;23.232;2023-09-19T05:57:36;100195.88;;;19.66;75.51
33697;BME280;20031;43.416;23.232;2023-09-19T06:00:05;100206.63;;;19.71;74.32
33697;BME280;20031;43.416;23.232;2023-09-19T06:02:37;100197.34;;;19.62;74.11
33697;BME280;20031;43.416;23.232;2023-09-19T06:05:06;100211.06;;;19.77;73.48
33697;BME280;20031;43.416;23.232;2023-09-19T06:07:35;100209.78;;;19.86;72.81
33697;BME280;20031;43.416;23.232;2023-09-19T06:10:05;100201.19;;;19.97;72.52
33697;BME280;20031;43.416;23.232;2023-09-19T06:12:32;100203.41;;;20.24;72.13
33697;BME280;20031;43.416;23.232;2023-09-19T06:15:06;100200.59;;;20.43;70.71
33697;BME280;20031;43.416;23.232;2023-09-19T06:17:35;100200.38;;;20.45;69.56
33697;BME280;20031;43.416;23.232;2023-09-19T06:20:06;100184.84;;;20.48;68.45
33697;BME280;20031;43.416;23.232;2023-09-19T06:22:44;100183.25;;;20.47;67.71
33697;BME280;20031;43.416;23.232;2023-09-19T06:25:11;100176.91;;;20.48;66.97
33697;BME280;20031;43.416;23.232;2023-09-19T06:27:40;100173.72;;;20.64;67.58
33697;BME280;20031;43.416;23.232;2023-09-19T06:30:10;100182.66;;;20.69;67.18
33697;BME280;20031;43.416;23.232;2023-09-19T06:32:43;100183.81;;;20.73;66.54
33697;BME280;20031;43.416;23.232;2023-09-19T06:35:12;100191.66;;;20.62;66.51
33697;BME280;20031;43.416;23.232;2023-09-19T06:37:39;100187.97;;;20.63;66.65
33697;BME280;20031;43.416;23.232;2023-09-19T06:40:09;100180.38;;;20.73;66.45
33697;BME280;20031;43.416;23.232;2023-09-19T06:42:43;100180.09;;;20.81;66.34
33697;BME280;20031;43.416;23.232;2023-09-19T06:45:14;100191.41;;;20.88;65.27
33697;BME280;20031;43.416;23.232;2023-09-19T06:47:48;100197.81;;;20.80;65.80
33697;BME280;20031;43.416;23.232;2023-09-19T06:50:20;100206.72;;;20.86;65.23
33697;BME280;20031;43.416;23.232;2023-09-19T06:52:48;100207.88;;;20.90;65.31
33697;BME280;20031;43.416;23.232;2023-09-19T06:55:18;100213.03;;;20.85;65.03
33697;BME280;20031;43.416;23.232;2023-09-19T06:57:48;100216.28;;;20.87;64.99
33697;BME280;20031;43.416;23.232;2023-09-19T07:00:13;100215.88;;;20.83;64.87
33697;BME280;20031;43.416;23.232;2023-09-19T07:03:02;100214.88;;;20.84;65.32
33697;BME280;20031;43.416;23.232;2023-09-19T07:05:30;100209.75;;;20.89;65.98
33697;BME280;20031;43.416;23.232;2023-09-19T07:07:57;100215.31;;;20.99;66.13
33697;BME280;20031;43.416;23.232;2023-09-19T07:10:26;100206.28;;;21.06;65.59
33697;BME280;20031;43.416;23.232;2023-09-19T07:12:59;100209.88;;;21.12;65.76
33697;BME280;20031;43.416;23.232;2023-09-19T07:15:28;100208.59;;;21.32;65.54
33697;BME280;20031;43.416;23.232;2023-09-19T07:17:56;100205.28;;;21.54;65.08
33697;BME280;20031;43.416;23.232;2023-09-19T07:20:22;100198.09;;;21.73;63.38
33697;BME280;20031;43.416;23.232;2023-09-19T07:22:51;100206.97;;;21.90;63.97
33697;BME280;20031;43.416;23.232;2023-09-19T07:25:16;100195.16;;;22.15;63.64
33697;BME280;20031;43.416;23.232;2023-09-19T07:27:42;100199.00;;;22.42;62.83
33697;BME280;20031;43.416;23.232;2023-09-19T07:30:09;100203.16;;;22.60;61.99
33697;BME280;20031;43.416;23.232;2023-09-19T07:32:35;100201.78;;;22.58;60.81
33697;BME280;20031;43.416;23.232;2023-09-19T07:35:04;100191.16;;;22.69;60.07
33697;BME280;20031;43.416;23.232;2023-09-19T07:37:34;100187.47;;;22.82;60.36
33697;BME280;20031;43.416;23.232;2023-09-19T07:40:00;100183.97;;;23.04;59.77
33697;BME280;20031;43.416;23.232;2023-09-19T07:42:36;100183.16;;;23.31;59.86
33697;BME280;20031;43.416;23.232;2023-09-19T07:45:04;100178.94;;;23.47;58.41
33697;BME280;20031;43.416;23.232;2023-09-19T07:47:30;100175.66;;;23.28;57.64
33697;BME280;20031;43.416;23.232;2023-09-19T07:49:58;100187.50;;;23.21;57.84
33697;BME280;20031;43.416;23.232;2023-09-19T07:52:24;100179.19;;;23.17;58.05
33697;BME280;20031;43.416;23.232;2023-09-19T07:54:49;100183.22;;;23.20;58.18
33697;BME280;20031;43.416;23.232;2023-09-19T07:57:15;100177.41;;;23.34;57.67
33697;BME280;20031;43.416;23.232;2023-09-19T07:59:41;100168.91;;;23.65;57.42
33697;BME280;20031;43.416;23.232;2023-09-19T08:02:08;100182.63;;;24.01;56.40
33697;BME280;20031;43.416;23.232;2023-09-19T08:04:42;100168.41;;;24.12;55.39
33697;BME280;20031;43.416;23.232;2023-09-19T08:07:07;100164.06;;;24.22;54.84
33697;BME280;20031;43.416;23.232;2023-09-19T08:09:34;100159.47;;;24.34;54.25
33697;BME280;20031;43.416;23.232;2023-09-19T08:12:00;100172.13;;;24.27;54.62
33697;BME280;20031;43.416;23.232;2023-09-19T08:14:29;100170.22;;;24.39;53.97
33697;BME280;20031;43.416;23.232;2023-09-19T08:16:58;100168.66;;;24.43;54.10
33697;BME280;20031;43.416;23.232;2023-09-19T08:19:24;100166.34;;;24.47;54.30
33697;BME280;20031;43.416;23.232;2023-09-19T08:21:56;100175.69;;;24.49;53.61
33697;BME280;20031;43.416;23.232;2023-09-19T08:24:25;100169.13;;;24.57;53.18
33697;BME280;20031;43.416;23.232;2023-09-19T08:26:56;100163.72;;;24.52;53.37
33697;BME280;20031;43.416;23.232;2023-09-19T08:29:23;100168.75;;;24.48;53.13
33697;BME280;20031;43.416;23.232;2023-09-19T08:31:56;100153.25;;;24.45;52.93
33697;BME280;20031;43.416;23.232;2023-09-19T08:34:23;100171.31;;;24.43;53.36
33697;BME280;20031;43.416;23.232;2023-09-19T08:36:53;100163.53;;;24.37;53.38
33697;BME280;20031;43.416;23.232;2023-09-19T08:39:25;100170.22;;;24.39;53.10
33697;BME280;20031;43.416;23.232;2023-09-19T08:42:01;100161.63;;;24.54;52.60
33697;BME280;20031;43.416;23.232;2023-09-19T08:44:29;100152.28;;;24.51;51.84
33697;BME280;20031;43.416;23.232;2023-09-19T08:47:04;100163.56;;;24.58;52.14
33697;BME280;20031;43.416;23.232;2023-09-19T08:49:41;100166.25;;;24.42;51.96
33697;BME280;20031;43.416;23.232;2023-09-19T08:52:27;100160.13;;;24.25;51.72
33697;BME280;20031;43.416;23.232;2023-09-19T08:54:58;100165.91;;;24.22;51.96
33697;BME280;20031;43.416;23.232;2023-09-19T08:57:25;100166.00;;;24.27;51.74
33697;BME280;20031;43.416;23.232;2023-09-19T08:59:55;100157.03;;;24.33;51.98
33697;BME280;20031;43.416;23.232;2023-09-19T09:02:22;100162.47;;;24.38;51.62
33697;BME280;20031;43.416;23.232;2023-09-19T09:04:49;100156.00;;;24.34;51.42
33697;BME280;20031;43.416;23.232;2023-09-19T09:07:16;100158.66;;;24.34;51.98
33697;BME280;20031;43.416;23.232;2023-09-19T09:09:44;100151.81;;;24.38;51.39
33697;BME280;20031;43.416;23.232;2023-09-19T09:12:14;100145.19;;;24.40;51.11
33697;BME280;20031;43.416;23.232;2023-09-19T09:14:44;100152.63;;;24.38;51.53
33697;BME280;20031;43.416;23.232;2023-09-19T09:17:10;100147.44;;;24.48;51.02
33697;BME280;20031;43.416;23.232;2023-09-19T09:19:36;100152.34;;;24.56;50.91
33697;BME280;20031;43.416;23.232;2023-09-19T09:22:09;100148.72;;;24.62;50.18
33697;BME280;20031;43.416;23.232;2023-09-19T09:24:35;100147.03;;;24.56;50.33
33697;BME280;20031;43.416;23.232;2023-09-19T09:27:06;100140.56;;;24.52;50.25
33697;BME280;20031;43.416;23.232;2023-09-19T09:29:46;100141.50;;;24.63;50.66
33697;BME280;20031;43.416;23.232;2023-09-19T09:32:29;100132.28;;;24.70;49.79
33697;BME280;20031;43.416;23.232;2023-09-19T09:34:59;100136.50;;;24.87;50.06
33697;BME280;20031;43.416;23.232;2023-09-19T09:37:26;100134.09;;;24.86;49.31
33697;BME280;20031;43.416;23.232;2023-09-19T09:40:03;100136.97;;;24.84;49.61
33697;BME280;20031;43.416;23.232;2023-09-19T09:42:40;100142.94;;;24.91;49.28
33697;BME280;20031;43.416;23.232;2023-09-19T09:45:24;100146.09;;;25.05;49.05
33697;BME280;20031;43.416;23.232;2023-09-19T09:48:00;100145.72;;;25.22;49.20
33697;BME280;20031;43.416;23.232;2023-09-19T09:50:35;100155.44;;;25.28;48.98
33697;BME280;20031;43.416;23.232;2023-09-19T09:53:27;100149.13;;;25.39;48.70
33697;BME280;20031;43.416;23.232;2023-09-19T09:58:50;100150.38;;;25.32;48.73
33697;BME280;20031;43.416;23.232;2023-09-19T10:01:20;100141.09;;;25.34;48.68
33697;BME280;20031;43.416;23.232;2023-09-19T10:03:46;100143.78;;;25.39;48.17
33697;BME280;20031;43.416;23.232;2023-09-19T10:06:17;100135.53;;;25.41;48.64
33697;BME280;20031;43.416;23.232;2023-09-19T10:09:05;100133.31;;;25.59;48.70
33697;BME280;20031;43.416;23.232;2023-09-19T10:12:03;100135.91;;;26.12;47.36
33697;BME280;20031;43.416;23.232;2023-09-19T10:14:33;100142.66;;;26.55;46.17
33697;BME280;20031;43.416;23.232;2023-09-19T10:17:00;100144.09;;;26.77;45.33
33697;BME280;20031;43.416;23.232;2023-09-19T10:21:59;100140.72;;;26.97;44.66
33697;BME280;20031;43.416;23.232;2023-09-19T10:24:28;100139.19;;;27.16;45.23
33697;BME280;20031;43.416;23.232;2023-09-19T10:26:53;100130.44;;;27.50;44.15
33697;BME280;20031;43.416;23.232;2023-09-19T10:29:21;100129.44;;;27.80;43.52
33697;BME280;20031;43.416;23.232;2023-09-19T10:31:47;100121.91;;;28.27;42.49
33697;BME280;20031;43.416;23.232;2023-09-19T10:34:17;100113.50;;;28.58;42.47
33697;BME280;20031;43.416;23.232;2023-09-19T10:36:44;100112.16;;;28.61;41.00
33697;BME280;20031;43.416;23.232;2023-09-19T10:39:14;100108.25;;;28.09;42.01
33697;BME280;20031;43.416;23.232;2023-09-19T10:41:49;100105.31;;;27.85;42.75
33697;BME280;20031;43.416;23.232;2023-09-19T10:44:28;100111.19;;;27.68;42.88
33697;BME280;20031;43.416;23.232;2023-09-19T10:46:57;100099.97;;;27.66;43.42
33697;BME280;20031;43.416;23.232;2023-09-19T10:49:23;100099.16;;;27.95;43.69
33697;BME280;20031;43.416;23.232;2023-09-19T10:51:53;100103.38;;;28.45;42.22
33697;BME280;20031;43.416;23.232;2023-09-19T10:54:22;100104.13;;;28.61;41.77
33697;BME280;20031;43.416;23.232;2023-09-19T10:56:52;100094.19;;;28.66;40.69
33697;BME280;20031;43.416;23.232;2023-09-19T10:59:20;100093.50;;;28.36;41.86
33697;BME280;20031;43.416;23.232;2023-09-19T11:01:51;100095.41;;;28.16;42.42
33697;BME280;20031;43.416;23.232;2023-09-19T11:04:31;100090.84;;;28.11;42.32
33697;BME280;20031;43.416;23.232;2023-09-19T11:09:48;100086.81;;;27.99;42.43
33697;BME280;20031;43.416;23.232;2023-09-19T11:14:55;100086.84;;;27.49;42.90
33697;BME280;20031;43.416;23.232;2023-09-19T11:30:37;100048.88;;;28.60;41.32
33697;BME280;20031;43.416;23.232;2023-09-19T11:33:19;100050.50;;;28.66;41.73
33697;BME280;20031;43.416;23.232;2023-09-19T11:49:18;100039.13;;;28.21;42.92
33697;BME280;20031;43.416;23.232;2023-09-19T11:51:50;100043.16;;;28.18;42.52
33697;BME280;20031;43.416;23.232;2023-09-19T11:54:17;100048.53;;;27.98;42.43
33697;BME280;20031;43.416;23.232;2023-09-19T11:56:53;100034.09;;;27.79;43.21
33697;BME280;20031;43.416;23.232;2023-09-19T11:59:20;100035.47;;;27.62;43.41
33697;BME280;20031;43.416;23.232;2023-09-19T12:01:52;100029.53;;;27.70;43.75
33697;BME280;20031;43.416;23.232;2023-09-19T12:07:08;100032.19;;;28.15;43.54
33697;BME280;20031;43.416;23.232;2023-09-19T12:09:39;100026.56;;;28.16;43.27
33697;BME280;20031;43.416;23.232;2023-09-19T12:12:24;100031.38;;;28.14;43.03
33697;BME280;20031;43.416;23.232;2023-09-19T12:14:54;100017.97;;;28.19;43.19
33697;BME280;20031;43.416;23.232;2023-09-19T12:17:20;100014.22;;;28.15;42.59
33697;BME280;20031;43.416;23.232;2023-09-19T12:19:53;100015.00;;;28.21;43.03
33697;BME280;20031;43.416;23.232;2023-09-19T12:22:19;100011.78;;;28.19;42.95
33697;BME280;20031;43.416;23.232;2023-09-19T12:24:46;100022.25;;;28.15;42.86
33697;BME280;20031;43.416;23.232;2023-09-19T12:27:12;100019.56;;;28.25;43.24
33697;BME280;20031;43.416;23.232;2023-09-19T12:29:48;100013.88;;;28.36;42.77
33697;BME280;20031;43.416;23.232;2023-09-19T12:32:14;100010.44;;;28.26;42.46
33697;BME280;20031;43.416;23.232;2023-09-19T12:34:42;100010.16;;;28.28;42.70
33697;BME280;20031;43.416;23.232;2023-09-19T12:37:15;100002.13;;;28.28;42.27
33697;BME280;20031;43.416;23.232;2023-09-19T12:39:46;99999.66;;;28.41;42.35
33697;BME280;20031;43.416;23.232;2023-09-19T12:42:15;99995.00;;;28.61;41.94
33697;BME280;20031;43.416;23.232;2023-09-19T12:44:46;99999.31;;;28.57;41.88
33697;BME280;20031;43.416;23.232;2023-09-19T12:47:15;100004.13;;;28.60;41.86
33697;BME280;20031;43.416;23.232;2023-09-19T12:52:47;100002.09;;;28.32;42.35
33697;BME280;20031;43.416;23.232;2023-09-19T12:55:21;99999.41;;;28.32;42.11
33697;BME280;20031;43.416;23.232;2023-09-19T12:58:13;100004.53;;;28.24;42.71
33697;BME280;20031;43.416;23.232;2023-09-19T13:00:44;100002.66;;;28.34;42.08
33697;BME280;20031;43.416;23.232;2023-09-19T13:05:48;99992.16;;;28.43;42.30
33697;BME280;20031;43.416;23.232;2023-09-19T13:08:24;99982.78;;;28.40;41.68
33697;BME280;20031;43.416;23.232;2023-09-19T13:11:14;99981.75;;;28.32;42.26
33697;BME280;20031;43.416;23.232;2023-09-19T13:14:17;99987.34;;;28.40;42.24
33697;BME280;20031;43.416;23.232;2023-09-19T13:19:41;99989.72;;;28.46;42.79
33697;BME280;20031;43.416;23.232;2023-09-19T13:22:40;99987.53;;;28.48;42.33
33697;BME280;20031;43.416;23.232;2023-09-19T13:25:15;99986.75;;;28.48;42.55
33697;BME280;20031;43.416;23.232;2023-09-19T13:27:44;99978.16;;;28.51;42.48
33697;BME280;20031;43.416;23.232;2023-09-19T13:30:11;99988.31;;;28.54;41.89
33697;BME280;20031;43.416;23.232;2023-09-19T13:32:36;99984.63;;;28.50;42.31
33697;BME280;20031;43.416;23.232;2023-09-19T13:35:05;99983.28;;;28.42;42.54
33697;BME280;20031;43.416;23.232;2023-09-19T13:37:31;99982.22;;;28.43;42.28
33697;BME280;20031;43.416;23.232;2023-09-19T13:39:57;99980.94;;;28.36;42.13
33697;BME280;20031;43.416;23.232;2023-09-19T13:42:25;99991.06;;;28.44;42.68
33697;BME280;20031;43.416;23.232;2023-09-19T13:44:50;99984.09;;;28.43;42.30
33697;BME280;20031;43.416;23.232;2023-09-19T13:47:16;99979.50;;;28.48;42.69
33697;BME280;20031;43.416;23.232;2023-09-19T13:49:49;99976.53;;;28.55;42.39